sensor_id;sensor_type;location;lat;lon;timestamp;P1;durP1;ratioP1;P2;durP2;ratioP2
13592;SDS011;6867;50.998;4.250;2022-10-30T00:00:07;8.38;;;5.43;;
13592;SDS011;6867;50.998;4.250;2022-10-30T00:02:37;9.70;;;5.55;;
13592;SDS011;6867;50.998;4.250;2022-10-30T00:05:04;10.73;;;5.30;;
13592;SDS011;6867;50.998;4.250;2022-10-30T00:07:31;17.15;;;6.63;;
13592;SDS011;6867;50.998;4.250;2022-10-30T00:09:58;15.30;;;5.90;;
13592;SDS011;6867;50.998;4.250;2022-10-30T00:12:25;10.70;;;6.35;;
13592;SDS011;6867;50.998;4.250;2022-10-30T00:14:53;13.88;;;6.57;;
13592;SDS011;6867;50.998;4.250;2022-10-30T00:17:22;11.23;;;7.15;;
13592;SDS011;6867;50.998;4.250;2022-10-30T00:19:48;9.10;;;6.25;;
13592;SDS011;6867;50.998;4.250;2022-10-30T00:22:15;12.85;;;6.68;;
13592;SDS011;6867;50.998;4.250;2022-10-30T00:24:42;16.73;;;6.85;;
13592;SDS011;6867;50.998;4.250;2022-10-30T00:27:09;13.48;;;6.95;;
13592;SDS011;6867;50.998;4.250;2022-10-30T00:29:37;13.70;;;6.68;;
13592;SDS011;6867;50.998;4.250;2022-10-30T00:32:07;10.50;;;5.72;;
13592;SDS011;6867;50.998;4.250;2022-10-30T00:34:36;13.90;;;5.55;;
13592;SDS011;6867;50.998;4.250;2022-10-30T00:37:02;11.20;;;5.40;;
13592;SDS011;6867;50.998;4.250;2022-10-30T00:39:29;10.35;;;5.93;;
13592;SDS011;6867;50.998;4.250;2022-10-30T00:41:56;12.23;;;5.57;;
13592;SDS011;6867;50.998;4.250;2022-10-30T00:44:34;11.70;;;6.13;;
13592;SDS011;6867;50.998;4.250;2022-10-30T00:47:04;9.15;;;5.88;;
13592;SDS011;6867;50.998;4.250;2022-10-30T00:49:38;10.27;;;5.85;;
13592;SDS011;6867;50.998;4.250;2022-10-30T00:52:12;12.77;;;5.97;;
13592;SDS011;6867;50.998;4.250;2022-10-30T00:54:44;15.80;;;6.70;;
13592;SDS011;6867;50.998;4.250;2022-10-30T00:57:11;9.52;;;5.55;;
13592;SDS011;6867;50.998;4.250;2022-10-30T00:59:40;9.07;;;5.68;;
13592;SDS011;6867;50.998;4.250;2022-10-30T01:02:11;14.60;;;7.15;;
13592;SDS011;6867;50.998;4.250;2022-10-30T01:04:41;9.52;;;5.57;;
13592;SDS011;6867;50.998;4.250;2022-10-30T01:07:10;10.00;;;6.35;;
13592;SDS011;6867;50.998;4.250;2022-10-30T01:09:43;12.43;;;6.70;;
13592;SDS011;6867;50.998;4.250;2022-10-30T01:12:12;10.80;;;6.25;;
13592;SDS011;6867;50.998;4.250;2022-10-30T01:14:42;13.70;;;6.80;;
13592;SDS011;6867;50.998;4.250;2022-10-30T01:17:19;16.20;;;6.93;;
13592;SDS011;6867;50.998;4.250;2022-10-30T01:20:07;9.95;;;5.75;;
13592;SDS011;6867;50.998;4.250;2022-10-30T01:22:54;11.40;;;5.85;;
13592;SDS011;6867;50.998;4.250;2022-10-30T01:25:35;13.15;;;7.05;;
13592;SDS011;6867;50.998;4.250;2022-10-30T01:28:25;12.68;;;5.75;;
13592;SDS011;6867;50.998;4.250;2022-10-30T01:31:07;11.60;;;5.88;;
13592;SDS011;6867;50.998;4.250;2022-10-30T01:33:54;10.40;;;6.45;;
13592;SDS011;6867;50.998;4.250;2022-10-30T01:36:36;12.45;;;5.85;;
13592;SDS011;6867;50.998;4.250;2022-10-30T01:39:09;8.15;;;5.50;;
13592;SDS011;6867;50.998;4.250;2022-10-30T01:41:41;11.15;;;5.50;;
13592;SDS011;6867;50.998;4.250;2022-10-30T01:44:10;11.82;;;5.38;;
13592;SDS011;6867;50.998;4.250;2022-10-30T01:46:41;13.00;;;6.60;;
13592;SDS011;6867;50.998;4.250;2022-10-30T01:49:24;13.88;;;6.47;;
13592;SDS011;6867;50.998;4.250;2022-10-30T01:52:04;15.25;;;6.35;;
13592;SDS011;6867;50.998;4.250;2022-10-30T01:54:39;11.38;;;6.22;;
13592;SDS011;6867;50.998;4.250;2022-10-30T01:57:15;11.80;;;6.20;;
13592;SDS011;6867;50.998;4.250;2022-10-30T01:59:50;17.58;;;6.72;;
13592;SDS011;6867;50.998;4.250;2022-10-30T02:02:20;9.52;;;5.82;;
13592;SDS011;6867;50.998;4.250;2022-10-30T02:04:49;10.27;;;6.30;;
13592;SDS011;6867;50.998;4.250;2022-10-30T02:07:17;15.50;;;5.82;;
13592;SDS011;6867;50.998;4.250;2022-10-30T02:09:44;10.32;;;5.22;;
13592;SDS011;6867;50.998;4.250;2022-10-30T02:12:11;16.35;;;6.15;;
13592;SDS011;6867;50.998;4.250;2022-10-30T02:14:41;14.65;;;6.32;;
13592;SDS011;6867;50.998;4.250;2022-10-30T02:17:11;11.35;;;6.45;;
13592;SDS011;6867;50.998;4.250;2022-10-30T02:19:38;12.27;;;6.57;;
13592;SDS011;6867;50.998;4.250;2022-10-30T02:22:06;10.40;;;6.22;;
13592;SDS011;6867;50.998;4.250;2022-10-30T02:24:34;17.30;;;6.72;;
13592;SDS011;6867;50.998;4.250;2022-10-30T02:27:01;9.40;;;6.05;;
13592;SDS011;6867;50.998;4.250;2022-10-30T02:29:29;9.45;;;6.05;;
13592;SDS011;6867;50.998;4.250;2022-10-30T02:31:55;11.50;;;6.82;;
13592;SDS011;6867;50.998;4.250;2022-10-30T02:34:22;9.90;;;5.47;;
13592;SDS011;6867;50.998;4.250;2022-10-30T02:36:50;11.55;;;6.20;;
13592;SDS011;6867;50.998;4.250;2022-10-30T02:39:18;15.18;;;6.22;;
13592;SDS011;6867;50.998;4.250;2022-10-30T02:41:45;13.45;;;5.72;;
13592;SDS011;6867;50.998;4.250;2022-10-30T02:44:12;10.75;;;5.38;;
13592;SDS011;6867;50.998;4.250;2022-10-30T02:46:42;10.80;;;6.15;;
13592;SDS011;6867;50.998;4.250;2022-10-30T02:49:08;12.52;;;6.07;;
13592;SDS011;6867;50.998;4.250;2022-10-30T02:51:35;10.70;;;6.20;;
13592;SDS011;6867;50.998;4.250;2022-10-30T02:54:02;9.23;;;6.40;;
13592;SDS011;6867;50.998;4.250;2022-10-30T02:56:30;10.00;;;6.10;;
13592;SDS011;6867;50.998;4.250;2022-10-30T02:58:59;14.90;;;6.88;;
13592;SDS011;6867;50.998;4.250;2022-10-30T03:01:26;14.10;;;6.85;;
13592;SDS011;6867;50.998;4.250;2022-10-30T03:03:53;11.23;;;6.47;;
13592;SDS011;6867;50.998;4.250;2022-10-30T03:06:19;10.65;;;5.57;;
13592;SDS011;6867;50.998;4.250;2022-10-30T03:08:46;11.82;;;6.20;;
13592;SDS011;6867;50.998;4.250;2022-10-30T03:11:13;13.02;;;6.00;;
13592;SDS011;6867;50.998;4.250;2022-10-30T03:13:42;10.10;;;5.85;;
13592;SDS011;6867;50.998;4.250;2022-10-30T03:16:10;10.25;;;6.20;;
13592;SDS011;6867;50.998;4.250;2022-10-30T03:18:39;8.73;;;5.82;;
13592;SDS011;6867;50.998;4.250;2022-10-30T03:21:07;10.90;;;6.03;;
13592;SDS011;6867;50.998;4.250;2022-10-30T03:23:35;13.77;;;6.80;;
13592;SDS011;6867;50.998;4.250;2022-10-30T03:26:02;11.73;;;6.18;;
13592;SDS011;6867;50.998;4.250;2022-10-30T03:28:30;13.75;;;6.57;;
13592;SDS011;6867;50.998;4.250;2022-10-30T03:30:59;11.43;;;6.22;;
13592;SDS011;6867;50.998;4.250;2022-10-30T03:33:26;9.57;;;6.18;;
13592;SDS011;6867;50.998;4.250;2022-10-30T03:35:53;14.25;;;6.80;;
13592;SDS011;6867;50.998;4.250;2022-10-30T03:38:20;15.93;;;6.28;;
13592;SDS011;6867;50.998;4.250;2022-10-30T03:40:47;10.18;;;6.15;;
13592;SDS011;6867;50.998;4.250;2022-10-30T03:43:14;13.17;;;6.40;;
13592;SDS011;6867;50.998;4.250;2022-10-30T03:45:44;10.60;;;6.03;;
13592;SDS011;6867;50.998;4.250;2022-10-30T03:48:15;11.07;;;5.82;;
13592;SDS011;6867;50.998;4.250;2022-10-30T03:50:42;9.88;;;6.03;;
13592;SDS011;6867;50.998;4.250;2022-10-30T03:53:09;12.70;;;6.30;;
13592;SDS011;6867;50.998;4.250;2022-10-30T03:55:36;11.18;;;6.97;;
13592;SDS011;6867;50.998;4.250;2022-10-30T03:58:03;10.60;;;6.50;;
13592;SDS011;6867;50.998;4.250;2022-10-30T04:00:31;14.88;;;5.63;;
13592;SDS011;6867;50.998;4.250;2022-10-30T04:02:58;11.48;;;6.18;;
13592;SDS011;6867;50.998;4.250;2022-10-30T04:05:27;15.68;;;6.47;;
13592;SDS011;6867;50.998;4.250;2022-10-30T04:07:54;16.63;;;6.27;;
13592;SDS011;6867;50.998;4.250;2022-10-30T04:10:22;14.03;;;6.30;;
13592;SDS011;6867;50.998;4.250;2022-10-30T04:12:49;14.20;;;6.93;;
13592;SDS011;6867;50.998;4.250;2022-10-30T04:15:15;10.75;;;6.35;;
13592;SDS011;6867;50.998;4.250;2022-10-30T04:17:47;13.40;;;6.70;;
13592;SDS011;6867;50.998;4.250;2022-10-30T04:20:14;15.07;;;7.30;;
13592;SDS011;6867;50.998;4.250;2022-10-30T04:22:42;9.63;;;6.22;;
13592;SDS011;6867;50.998;4.250;2022-10-30T04:25:09;14.25;;;6.65;;
13592;SDS011;6867;50.998;4.250;2022-10-30T04:27:38;13.53;;;6.40;;
13592;SDS011;6867;50.998;4.250;2022-10-30T04:30:06;14.55;;;6.18;;
13592;SDS011;6867;50.998;4.250;2022-10-30T04:32:34;10.23;;;6.25;;
13592;SDS011;6867;50.998;4.250;2022-10-30T04:35:01;14.63;;;6.63;;
13592;SDS011;6867;50.998;4.250;2022-10-30T04:37:28;13.00;;;6.40;;
13592;SDS011;6867;50.998;4.250;2022-10-30T04:39:58;10.43;;;6.07;;
13592;SDS011;6867;50.998;4.250;2022-10-30T04:42:24;11.17;;;5.70;;
13592;SDS011;6867;50.998;4.250;2022-10-30T04:44:51;10.07;;;5.70;;
13592;SDS011;6867;50.998;4.250;2022-10-30T04:47:18;12.47;;;6.37;;
13592;SDS011;6867;50.998;4.250;2022-10-30T04:49:44;11.87;;;6.00;;
13592;SDS011;6867;50.998;4.250;2022-10-30T04:52:11;13.43;;;5.97;;
13592;SDS011;6867;50.998;4.250;2022-10-30T04:54:38;12.13;;;5.83;;
13592;SDS011;6867;50.998;4.250;2022-10-30T04:57:06;15.67;;;6.67;;
13592;SDS011;6867;50.998;4.250;2022-10-30T04:59:33;13.77;;;6.77;;
13592;SDS011;6867;50.998;4.250;2022-10-30T05:01:59;16.90;;;6.93;;
13592;SDS011;6867;50.998;4.250;2022-10-30T05:04:26;12.93;;;6.17;;
13592;SDS011;6867;50.998;4.250;2022-10-30T05:06:53;13.50;;;6.63;;
13592;SDS011;6867;50.998;4.250;2022-10-30T05:09:20;11.73;;;6.00;;
13592;SDS011;6867;50.998;4.250;2022-10-30T05:11:46;9.63;;;6.07;;
13592;SDS011;6867;50.998;4.250;2022-10-30T05:14:14;17.93;;;6.30;;
13592;SDS011;6867;50.998;4.250;2022-10-30T05:16:41;13.97;;;6.50;;
13592;SDS011;6867;50.998;4.250;2022-10-30T05:19:07;12.27;;;7.40;;
13592;SDS011;6867;50.998;4.250;2022-10-30T05:21:35;14.73;;;7.67;;
13592;SDS011;6867;50.998;4.250;2022-10-30T05:24:01;11.70;;;6.53;;
13592;SDS011;6867;50.998;4.250;2022-10-30T05:26:28;12.73;;;6.30;;
13592;SDS011;6867;50.998;4.250;2022-10-30T05:28:55;10.83;;;7.00;;
13592;SDS011;6867;50.998;4.250;2022-10-30T05:31:23;13.87;;;7.23;;
13592;SDS011;6867;50.998;4.250;2022-10-30T05:33:49;15.23;;;7.47;;
13592;SDS011;6867;50.998;4.250;2022-10-30T05:36:16;11.97;;;7.03;;
13592;SDS011;6867;50.998;4.250;2022-10-30T05:38:43;10.07;;;6.67;;
13592;SDS011;6867;50.998;4.250;2022-10-30T05:41:10;13.27;;;7.10;;
13592;SDS011;6867;50.998;4.250;2022-10-30T05:43:37;10.73;;;6.63;;
13592;SDS011;6867;50.998;4.250;2022-10-30T05:46:04;12.57;;;5.97;;
13592;SDS011;6867;50.998;4.250;2022-10-30T05:48:32;10.20;;;6.70;;
13592;SDS011;6867;50.998;4.250;2022-10-30T05:51:00;12.73;;;6.93;;
13592;SDS011;6867;50.998;4.250;2022-10-30T05:53:28;11.10;;;5.90;;
13592;SDS011;6867;50.998;4.250;2022-10-30T05:55:56;10.07;;;6.00;;
13592;SDS011;6867;50.998;4.250;2022-10-30T05:58:24;9.57;;;5.37;;
13592;SDS011;6867;50.998;4.250;2022-10-30T06:00:51;13.67;;;6.07;;
13592;SDS011;6867;50.998;4.250;2022-10-30T06:03:17;15.90;;;5.67;;
13592;SDS011;6867;50.998;4.250;2022-10-30T06:05:46;9.67;;;6.20;;
13592;SDS011;6867;50.998;4.250;2022-10-30T06:08:15;15.47;;;7.33;;
13592;SDS011;6867;50.998;4.250;2022-10-30T06:10:42;14.77;;;6.17;;
13592;SDS011;6867;50.998;4.250;2022-10-30T06:13:09;15.80;;;6.53;;
13592;SDS011;6867;50.998;4.250;2022-10-30T06:15:36;11.43;;;6.43;;
13592;SDS011;6867;50.998;4.250;2022-10-30T06:18:02;12.33;;;6.57;;
13592;SDS011;6867;50.998;4.250;2022-10-30T06:20:29;11.27;;;6.37;;
13592;SDS011;6867;50.998;4.250;2022-10-30T06:22:58;15.33;;;6.30;;
13592;SDS011;6867;50.998;4.250;2022-10-30T06:25:25;14.30;;;7.33;;
13592;SDS011;6867;50.998;4.250;2022-10-30T06:27:53;12.30;;;6.67;;
13592;SDS011;6867;50.998;4.250;2022-10-30T06:30:20;14.10;;;7.13;;
13592;SDS011;6867;50.998;4.250;2022-10-30T06:32:47;13.20;;;6.03;;
13592;SDS011;6867;50.998;4.250;2022-10-30T06:35:14;10.73;;;6.47;;
13592;SDS011;6867;50.998;4.250;2022-10-30T06:37:44;14.10;;;6.50;;
13592;SDS011;6867;50.998;4.250;2022-10-30T06:40:12;10.00;;;6.03;;
13592;SDS011;6867;50.998;4.250;2022-10-30T06:42:43;16.63;;;7.10;;
13592;SDS011;6867;50.998;4.250;2022-10-30T06:45:10;13.03;;;6.53;;
13592;SDS011;6867;50.998;4.250;2022-10-30T06:47:38;9.90;;;6.07;;
13592;SDS011;6867;50.998;4.250;2022-10-30T06:50:05;10.17;;;6.50;;
13592;SDS011;6867;50.998;4.250;2022-10-30T06:52:33;11.23;;;6.80;;
13592;SDS011;6867;50.998;4.250;2022-10-30T06:55:01;10.87;;;6.60;;
13592;SDS011;6867;50.998;4.250;2022-10-30T06:57:29;12.90;;;6.97;;
13592;SDS011;6867;50.998;4.250;2022-10-30T06:59:56;14.50;;;7.03;;
13592;SDS011;6867;50.998;4.250;2022-10-30T07:02:23;11.20;;;6.43;;
13592;SDS011;6867;50.998;4.250;2022-10-30T07:04:49;10.93;;;6.70;;
13592;SDS011;6867;50.998;4.250;2022-10-30T07:07:16;12.60;;;6.07;;
13592;SDS011;6867;50.998;4.250;2022-10-30T07:09:43;14.53;;;5.70;;
13592;SDS011;6867;50.998;4.250;2022-10-30T07:12:10;14.10;;;5.80;;
13592;SDS011;6867;50.998;4.250;2022-10-30T07:14:39;10.50;;;5.23;;
13592;SDS011;6867;50.998;4.250;2022-10-30T07:17:05;11.13;;;5.07;;
13592;SDS011;6867;50.998;4.250;2022-10-30T07:19:32;10.60;;;6.10;;
13592;SDS011;6867;50.998;4.250;2022-10-30T07:21:59;15.95;;;6.60;;
13592;SDS011;6867;50.998;4.250;2022-10-30T07:24:25;18.15;;;7.07;;
13592;SDS011;6867;50.998;4.250;2022-10-30T07:26:53;13.60;;;6.87;;
13592;SDS011;6867;50.998;4.250;2022-10-30T07:29:20;11.23;;;6.38;;
13592;SDS011;6867;50.998;4.250;2022-10-30T07:31:48;10.70;;;6.37;;
13592;SDS011;6867;50.998;4.250;2022-10-30T07:34:14;8.75;;;6.15;;
13592;SDS011;6867;50.998;4.250;2022-10-30T07:36:41;14.80;;;6.90;;
13592;SDS011;6867;50.998;4.250;2022-10-30T07:39:08;11.18;;;6.07;;
13592;SDS011;6867;50.998;4.250;2022-10-30T07:41:35;9.82;;;5.97;;
13592;SDS011;6867;50.998;4.250;2022-10-30T07:44:02;14.15;;;6.60;;
13592;SDS011;6867;50.998;4.250;2022-10-30T07:46:28;11.80;;;6.25;;
13592;SDS011;6867;50.998;4.250;2022-10-30T07:48:56;13.77;;;6.55;;
13592;SDS011;6867;50.998;4.250;2022-10-30T07:51:23;14.63;;;6.20;;
13592;SDS011;6867;50.998;4.250;2022-10-30T07:53:50;10.75;;;5.82;;
13592;SDS011;6867;50.998;4.250;2022-10-30T07:56:16;10.27;;;5.57;;
13592;SDS011;6867;50.998;4.250;2022-10-30T07:58:43;10.98;;;6.45;;
13592;SDS011;6867;50.998;4.250;2022-10-30T08:01:10;11.55;;;6.18;;
13592;SDS011;6867;50.998;4.250;2022-10-30T08:03:37;13.40;;;6.15;;
13592;SDS011;6867;50.998;4.250;2022-10-30T08:06:05;12.95;;;6.00;;
13592;SDS011;6867;50.998;4.250;2022-10-30T08:08:32;12.52;;;5.93;;
13592;SDS011;6867;50.998;4.250;2022-10-30T08:10:59;13.85;;;6.20;;
13592;SDS011;6867;50.998;4.250;2022-10-30T08:13:25;11.65;;;5.55;;
13592;SDS011;6867;50.998;4.250;2022-10-30T08:15:52;9.43;;;5.75;;
13592;SDS011;6867;50.998;4.250;2022-10-30T08:18:18;12.05;;;5.55;;
13592;SDS011;6867;50.998;4.250;2022-10-30T08:20:47;11.00;;;6.30;;
13592;SDS011;6867;50.998;4.250;2022-10-30T08:23:15;11.68;;;5.72;;
13592;SDS011;6867;50.998;4.250;2022-10-30T08:25:43;9.18;;;5.80;;
13592;SDS011;6867;50.998;4.250;2022-10-30T08:28:11;12.00;;;6.38;;
13592;SDS011;6867;50.998;4.250;2022-10-30T08:30:38;13.32;;;6.47;;
13592;SDS011;6867;50.998;4.250;2022-10-30T08:33:06;14.18;;;6.93;;
13592;SDS011;6867;50.998;4.250;2022-10-30T08:35:35;16.77;;;6.45;;
13592;SDS011;6867;50.998;4.250;2022-10-30T08:38:02;12.68;;;5.95;;
13592;SDS011;6867;50.998;4.250;2022-10-30T08:40:30;14.43;;;6.53;;
13592;SDS011;6867;50.998;4.250;2022-10-30T08:42:57;13.50;;;5.90;;
13592;SDS011;6867;50.998;4.250;2022-10-30T08:45:24;12.95;;;6.15;;
13592;SDS011;6867;50.998;4.250;2022-10-30T08:47:57;8.95;;;5.75;;
13592;SDS011;6867;50.998;4.250;2022-10-30T08:50:24;10.15;;;6.40;;
13592;SDS011;6867;50.998;4.250;2022-10-30T08:52:51;11.20;;;6.22;;
13592;SDS011;6867;50.998;4.250;2022-10-30T08:55:18;11.90;;;6.32;;
13592;SDS011;6867;50.998;4.250;2022-10-30T08:57:46;11.38;;;5.85;;
13592;SDS011;6867;50.998;4.250;2022-10-30T09:00:13;10.38;;;6.05;;
13592;SDS011;6867;50.998;4.250;2022-10-30T09:02:40;13.75;;;6.25;;
13592;SDS011;6867;50.998;4.250;2022-10-30T09:05:07;16.80;;;6.07;;
13592;SDS011;6867;50.998;4.250;2022-10-30T09:07:34;19.95;;;6.85;;
13592;SDS011;6867;50.998;4.250;2022-10-30T09:10:02;14.45;;;6.03;;
13592;SDS011;6867;50.998;4.250;2022-10-30T09:12:29;14.38;;;5.80;;
13592;SDS011;6867;50.998;4.250;2022-10-30T09:14:57;12.98;;;5.70;;
13592;SDS011;6867;50.998;4.250;2022-10-30T09:17:24;8.75;;;5.63;;
13592;SDS011;6867;50.998;4.250;2022-10-30T09:19:51;12.18;;;4.88;;
13592;SDS011;6867;50.998;4.250;2022-10-30T09:22:17;8.68;;;5.05;;
13592;SDS011;6867;50.998;4.250;2022-10-30T09:24:44;12.68;;;5.55;;
13592;SDS011;6867;50.998;4.250;2022-10-30T09:27:11;8.73;;;5.20;;
13592;SDS011;6867;50.998;4.250;2022-10-30T09:29:38;13.30;;;5.60;;
13592;SDS011;6867;50.998;4.250;2022-10-30T09:32:08;11.60;;;5.30;;
13592;SDS011;6867;50.998;4.250;2022-10-30T09:34:35;11.07;;;4.82;;
13592;SDS011;6867;50.998;4.250;2022-10-30T09:37:02;14.95;;;6.15;;
13592;SDS011;6867;50.998;4.250;2022-10-30T09:39:29;16.13;;;5.97;;
13592;SDS011;6867;50.998;4.250;2022-10-30T09:42:03;11.80;;;5.85;;
13592;SDS011;6867;50.998;4.250;2022-10-30T09:44:43;12.13;;;4.85;;
13592;SDS011;6867;50.998;4.250;2022-10-30T09:47:25;9.82;;;4.75;;
13592;SDS011;6867;50.998;4.250;2022-10-30T09:50:03;10.00;;;4.95;;
13592;SDS011;6867;50.998;4.250;2022-10-30T09:52:44;9.65;;;5.43;;
13592;SDS011;6867;50.998;4.250;2022-10-30T09:55:25;9.73;;;5.45;;
13592;SDS011;6867;50.998;4.250;2022-10-30T09:58:01;13.60;;;5.40;;
13592;SDS011;6867;50.998;4.250;2022-10-30T10:00:39;14.38;;;5.10;;
13592;SDS011;6867;50.998;4.250;2022-10-30T10:03:15;10.52;;;5.10;;
13592;SDS011;6867;50.998;4.250;2022-10-30T10:05:53;8.85;;;5.35;;
13592;SDS011;6867;50.998;4.250;2022-10-30T10:08:25;8.10;;;5.22;;
13592;SDS011;6867;50.998;4.250;2022-10-30T10:10:58;9.38;;;4.75;;
13592;SDS011;6867;50.998;4.250;2022-10-30T10:13:29;9.70;;;4.95;;
13592;SDS011;6867;50.998;4.250;2022-10-30T10:16:03;10.05;;;4.53;;
13592;SDS011;6867;50.998;4.250;2022-10-30T10:18:39;8.98;;;5.18;;
13592;SDS011;6867;50.998;4.250;2022-10-30T10:21:12;10.80;;;5.50;;
13592;SDS011;6867;50.998;4.250;2022-10-30T10:23:48;13.68;;;5.05;;
13592;SDS011;6867;50.998;4.250;2022-10-30T10:26:19;12.25;;;4.63;;
13592;SDS011;6867;50.998;4.250;2022-10-30T10:28:56;17.38;;;5.60;;
13592;SDS011;6867;50.998;4.250;2022-10-30T10:31:39;11.57;;;5.03;;
13592;SDS011;6867;50.998;4.250;2022-10-30T10:34:20;10.10;;;5.28;;
13592;SDS011;6867;50.998;4.250;2022-10-30T10:37:00;10.50;;;5.32;;
13592;SDS011;6867;50.998;4.250;2022-10-30T10:39:40;14.23;;;5.75;;
13592;SDS011;6867;50.998;4.250;2022-10-30T10:42:21;8.75;;;4.28;;
13592;SDS011;6867;50.998;4.250;2022-10-30T10:44:59;8.90;;;4.72;;
13592;SDS011;6867;50.998;4.250;2022-10-30T10:50:57;10.25;;;4.32;;
13592;SDS011;6867;50.998;4.250;2022-10-30T10:53:29;11.63;;;5.88;;
13592;SDS011;6867;50.998;4.250;2022-10-30T10:56:03;13.75;;;4.80;;
13592;SDS011;6867;50.998;4.250;2022-10-30T10:58:32;12.27;;;5.38;;
13592;SDS011;6867;50.998;4.250;2022-10-30T11:01:04;9.88;;;4.95;;
13592;SDS011;6867;50.998;4.250;2022-10-30T11:03:42;7.50;;;4.40;;
13592;SDS011;6867;50.998;4.250;2022-10-30T11:06:19;9.15;;;4.35;;
13592;SDS011;6867;50.998;4.250;2022-10-30T11:08:47;10.30;;;4.80;;
13592;SDS011;6867;50.998;4.250;2022-10-30T11:11:17;11.65;;;4.60;;
13592;SDS011;6867;50.998;4.250;2022-10-30T11:13:44;10.98;;;5.13;;
13592;SDS011;6867;50.998;4.250;2022-10-30T11:16:14;8.85;;;4.40;;
13592;SDS011;6867;50.998;4.250;2022-10-30T11:18:47;13.55;;;5.18;;
13592;SDS011;6867;50.998;4.250;2022-10-30T11:21:20;14.02;;;5.03;;
13592;SDS011;6867;50.998;4.250;2022-10-30T11:23:48;10.77;;;4.95;;
13592;SDS011;6867;50.998;4.250;2022-10-30T11:26:29;12.65;;;5.90;;
13592;SDS011;6867;50.998;4.250;2022-10-30T11:28:58;9.80;;;4.40;;
13592;SDS011;6867;50.998;4.250;2022-10-30T11:31:29;10.50;;;5.03;;
13592;SDS011;6867;50.998;4.250;2022-10-30T11:34:11;10.20;;;4.80;;
13592;SDS011;6867;50.998;4.250;2022-10-30T11:36:41;7.63;;;4.55;;
13592;SDS011;6867;50.998;4.250;2022-10-30T11:39:09;10.82;;;5.07;;
13592;SDS011;6867;50.998;4.250;2022-10-30T11:41:36;11.25;;;4.80;;
13592;SDS011;6867;50.998;4.250;2022-10-30T11:44:04;10.18;;;5.10;;
13592;SDS011;6867;50.998;4.250;2022-10-30T11:46:32;8.57;;;3.92;;
13592;SDS011;6867;50.998;4.250;2022-10-30T11:49:01;11.40;;;5.00;;
13592;SDS011;6867;50.998;4.250;2022-10-30T11:51:32;9.07;;;5.00;;
13592;SDS011;6867;50.998;4.250;2022-10-30T11:54:03;7.53;;;4.57;;
13592;SDS011;6867;50.998;4.250;2022-10-30T11:56:30;12.63;;;5.13;;
13592;SDS011;6867;50.998;4.250;2022-10-30T11:59:00;13.18;;;4.72;;
13592;SDS011;6867;50.998;4.250;2022-10-30T12:01:28;11.93;;;5.53;;
13592;SDS011;6867;50.998;4.250;2022-10-30T12:04:11;10.13;;;5.15;;
13592;SDS011;6867;50.998;4.250;2022-10-30T12:06:40;5.97;;;3.90;;
13592;SDS011;6867;50.998;4.250;2022-10-30T12:09:11;9.95;;;4.90;;
13592;SDS011;6867;50.998;4.250;2022-10-30T12:11:40;10.10;;;4.47;;
13592;SDS011;6867;50.998;4.250;2022-10-30T12:14:12;13.05;;;4.70;;
13592;SDS011;6867;50.998;4.250;2022-10-30T12:16:46;13.25;;;4.93;;
13592;SDS011;6867;50.998;4.250;2022-10-30T12:19:15;10.00;;;4.47;;
13592;SDS011;6867;50.998;4.250;2022-10-30T12:21:45;9.60;;;4.82;;
13592;SDS011;6867;50.998;4.250;2022-10-30T12:24:17;11.57;;;4.32;;
13592;SDS011;6867;50.998;4.250;2022-10-30T12:26:47;12.63;;;4.80;;
13592;SDS011;6867;50.998;4.250;2022-10-30T12:29:16;11.10;;;5.15;;
13592;SDS011;6867;50.998;4.250;2022-10-30T12:31:47;14.50;;;4.80;;
13592;SDS011;6867;50.998;4.250;2022-10-30T12:34:26;12.85;;;4.70;;
13592;SDS011;6867;50.998;4.250;2022-10-30T12:37:02;13.63;;;5.00;;
13592;SDS011;6867;50.998;4.250;2022-10-30T12:39:41;11.88;;;4.60;;
13592;SDS011;6867;50.998;4.250;2022-10-30T12:42:14;9.60;;;4.43;;
13592;SDS011;6867;50.998;4.250;2022-10-30T12:44:43;9.35;;;4.47;;
13592;SDS011;6867;50.998;4.250;2022-10-30T12:47:16;11.48;;;5.13;;
13592;SDS011;6867;50.998;4.250;2022-10-30T12:49:49;10.15;;;5.45;;
13592;SDS011;6867;50.998;4.250;2022-10-30T12:52:19;13.30;;;5.10;;
13592;SDS011;6867;50.998;4.250;2022-10-30T12:54:53;12.75;;;5.22;;
13592;SDS011;6867;50.998;4.250;2022-10-30T12:57:26;17.13;;;5.60;;
13592;SDS011;6867;50.998;4.250;2022-10-30T12:59:59;11.93;;;4.72;;
13592;SDS011;6867;50.998;4.250;2022-10-30T13:02:31;13.13;;;4.88;;
13592;SDS011;6867;50.998;4.250;2022-10-30T13:05:12;13.50;;;5.50;;
13592;SDS011;6867;50.998;4.250;2022-10-30T13:07:49;12.65;;;5.25;;
13592;SDS011;6867;50.998;4.250;2022-10-30T13:10:26;16.30;;;5.03;;
13592;SDS011;6867;50.998;4.250;2022-10-30T13:12:57;14.18;;;4.78;;
13592;SDS011;6867;50.998;4.250;2022-10-30T13:15:29;10.10;;;4.85;;
13592;SDS011;6867;50.998;4.250;2022-10-30T13:18:05;14.40;;;4.78;;
13592;SDS011;6867;50.998;4.250;2022-10-30T13:20:39;8.77;;;4.82;;
13592;SDS011;6867;50.998;4.250;2022-10-30T13:23:09;14.80;;;4.70;;
13592;SDS011;6867;50.998;4.250;2022-10-30T13:25:41;11.82;;;5.32;;
13592;SDS011;6867;50.998;4.250;2022-10-30T13:28:18;9.55;;;5.05;;
13592;SDS011;6867;50.998;4.250;2022-10-30T13:30:52;10.73;;;5.57;;
13592;SDS011;6867;50.998;4.250;2022-10-30T13:33:28;10.95;;;5.00;;
13592;SDS011;6867;50.998;4.250;2022-10-30T13:36:06;12.90;;;5.10;;
13592;SDS011;6867;50.998;4.250;2022-10-30T13:38:39;9.50;;;5.68;;
13592;SDS011;6867;50.998;4.250;2022-10-30T13:41:16;16.45;;;5.45;;
13592;SDS011;6867;50.998;4.250;2022-10-30T13:43:53;14.20;;;5.47;;
13592;SDS011;6867;50.998;4.250;2022-10-30T13:46:32;10.52;;;5.75;;
13592;SDS011;6867;50.998;4.250;2022-10-30T13:49:18;10.75;;;4.95;;
13592;SDS011;6867;50.998;4.250;2022-10-30T13:51:59;12.70;;;5.32;;
13592;SDS011;6867;50.998;4.250;2022-10-30T13:54:34;12.50;;;5.78;;
13592;SDS011;6867;50.998;4.250;2022-10-30T13:57:06;10.63;;;5.32;;
13592;SDS011;6867;50.998;4.250;2022-10-30T13:59:43;10.45;;;5.70;;
13592;SDS011;6867;50.998;4.250;2022-10-30T14:02:23;13.60;;;5.88;;
13592;SDS011;6867;50.998;4.250;2022-10-30T14:04:58;18.45;;;6.50;;
13592;SDS011;6867;50.998;4.250;2022-10-30T14:07:39;12.80;;;6.13;;
13592;SDS011;6867;50.998;4.250;2022-10-30T14:10:11;13.73;;;6.35;;
13592;SDS011;6867;50.998;4.250;2022-10-30T14:12:51;13.05;;;6.13;;
13592;SDS011;6867;50.998;4.250;2022-10-30T14:15:33;12.23;;;6.53;;
13592;SDS011;6867;50.998;4.250;2022-10-30T14:20:54;12.00;;;5.75;;
13592;SDS011;6867;50.998;4.250;2022-10-30T14:23:22;12.30;;;5.72;;
13592;SDS011;6867;50.998;4.250;2022-10-30T14:28:47;12.85;;;6.05;;
13592;SDS011;6867;50.998;4.250;2022-10-30T14:31:16;10.00;;;5.75;;
13592;SDS011;6867;50.998;4.250;2022-10-30T14:33:45;13.02;;;6.85;;
13592;SDS011;6867;50.998;4.250;2022-10-30T14:36:21;13.48;;;6.57;;
13592;SDS011;6867;50.998;4.250;2022-10-30T14:38:57;10.35;;;5.85;;
13592;SDS011;6867;50.998;4.250;2022-10-30T14:44:29;15.52;;;7.22;;
13592;SDS011;6867;50.998;4.250;2022-10-30T14:47:21;14.27;;;7.50;;
13592;SDS011;6867;50.998;4.250;2022-10-30T14:50:12;15.02;;;7.18;;
13592;SDS011;6867;50.998;4.250;2022-10-30T14:52:45;14.50;;;6.57;;
13592;SDS011;6867;50.998;4.250;2022-10-30T14:55:27;15.07;;;6.28;;
13592;SDS011;6867;50.998;4.250;2022-10-30T14:58:16;11.13;;;5.95;;
13592;SDS011;6867;50.998;4.250;2022-10-30T15:00:50;9.43;;;5.68;;
13592;SDS011;6867;50.998;4.250;2022-10-30T15:03:37;14.05;;;5.78;;
13592;SDS011;6867;50.998;4.250;2022-10-30T15:06:16;17.00;;;5.93;;
13592;SDS011;6867;50.998;4.250;2022-10-30T15:14:37;14.00;;;5.65;;
13592;SDS011;6867;50.998;4.250;2022-10-30T15:17:13;16.70;;;6.57;;
13592;SDS011;6867;50.998;4.250;2022-10-30T15:19:45;10.13;;;5.60;;
13592;SDS011;6867;50.998;4.250;2022-10-30T15:22:15;13.15;;;5.28;;
13592;SDS011;6867;50.998;4.250;2022-10-30T15:24:44;10.10;;;5.38;;
13592;SDS011;6867;50.998;4.250;2022-10-30T15:27:13;10.00;;;4.40;;